createdAt,value
2023-03-06T00:00:21.578Z,0.97
2023-03-06T00:03:08.430Z,0.95
2023-03-06T00:05:35.419Z,0.94
2023-03-06T00:08:03.048Z,0.94
2023-03-06T00:10:31.537Z,0.94
2023-03-06T00:13:05.579Z,0.93
2023-03-06T00:15:32.394Z,0.93
2023-03-06T00:17:59.752Z,0.92
2023-03-06T00:20:26.797Z,0.90
2023-03-06T00:22:55.496Z,0.90
2023-03-06T00:25:23.388Z,0.89
2023-03-06T00:27:50.737Z,0.90
2023-03-06T00:30:19.290Z,0.89
2023-03-06T00:32:46.216Z,0.89
2023-03-06T00:35:13.939Z,0.89
2023-03-06T00:37:43.338Z,0.89
2023-03-06T00:40:12.823Z,0.89
2023-03-06T00:42:39.775Z,0.86
2023-03-06T00:45:07.462Z,0.84
2023-03-06T00:47:34.641Z,0.84
2023-03-06T00:50:01.495Z,0.84
2023-03-06T00:52:28.526Z,0.83
2023-03-06T00:54:55.590Z,0.80
2023-03-06T00:57:22.621Z,0.77
2023-03-06T00:59:49.675Z,0.76
2023-03-06T01:02:16.977Z,0.74
2023-03-06T01:04:44.093Z,0.72
2023-03-06T01:07:11.652Z,0.67
2023-03-06T01:09:38.671Z,0.70
2023-03-06T01:12:05.727Z,0.69
2023-03-06T01:14:34.036Z,0.68
2023-03-06T01:17:00.906Z,0.67
2023-03-06T01:19:27.740Z,0.64
2023-03-06T01:21:55.133Z,0.64
2023-03-06T01:24:23.622Z,0.61
2023-03-06T01:26:50.834Z,0.60
2023-03-06T01:29:17.782Z,0.58
2023-03-06T01:31:44.657Z,0.56
2023-03-06T01:34:11.581Z,0.56
2023-03-06T01:36:38.528Z,0.55
2023-03-06T01:39:05.494Z,0.54
2023-03-06T01:41:32.537Z,0.54
2023-03-06T01:43:59.595Z,0.53
2023-03-06T01:46:32.175Z,0.53
2023-03-06T01:49:14.568Z,0.51
2023-03-06T01:51:49.888Z,0.48
2023-03-06T01:54:39.890Z,0.47
2023-03-06T01:57:09.227Z,0.46
2023-03-06T01:59:37.865Z,0.45
2023-03-06T02:02:06.198Z,0.44
2023-03-06T02:04:33.585Z,0.43
2023-03-06T02:07:04.366Z,0.40
2023-03-06T02:09:34.203Z,0.40
2023-03-06T02:12:02.230Z,0.40
2023-03-06T02:14:29.622Z,0.42
2023-03-06T02:16:56.649Z,0.42
2023-03-06T02:19:26.492Z,0.42
2023-03-06T02:21:53.542Z,0.40
2023-03-06T02:24:30.025Z,0.37
2023-03-06T02:26:57.675Z,0.36
2023-03-06T02:29:25.956Z,0.36
2023-03-06T02:31:53.420Z,0.35
2023-03-06T02:34:20.392Z,0.33
2023-03-06T02:36:49.368Z,0.33
2023-03-06T02:39:19.799Z,0.32
2023-03-06T02:41:46.666Z,0.31
2023-03-06T02:44:14.106Z,0.31
2023-03-06T02:46:42.490Z,0.29
2023-03-06T02:49:10.023Z,0.28
2023-03-06T02:51:36.959Z,0.28
2023-03-06T02:54:03.952Z,0.28
2023-03-06T02:56:31.314Z,0.27
2023-03-06T02:58:58.365Z,0.27
2023-03-06T03:01:25.400Z,0.28
2023-03-06T03:03:52.449Z,0.28
2023-03-06T03:06:21.023Z,0.27
2023-03-06T03:08:48.992Z,0.27
2023-03-06T03:11:16.161Z,0.27
2023-03-06T03:13:44.057Z,0.27
2023-03-06T03:16:14.954Z,0.26
2023-03-06T03:18:43.956Z,0.24
2023-03-06T03:21:12.028Z,0.22
2023-03-06T03:23:39.240Z,0.20
2023-03-06T03:26:10.594Z,0.19
2023-03-06T03:28:39.361Z,0.20
2023-03-06T03:31:08.156Z,0.18
2023-03-06T03:33:35.464Z,0.16
2023-03-06T03:36:03.989Z,0.17
2023-03-06T03:38:31.592Z,0.15
2023-03-06T03:40:59.963Z,0.17
2023-03-06T03:43:27.057Z,0.17
2023-03-06T03:45:55.097Z,0.17
2023-03-06T03:48:23.135Z,0.15
2023-03-06T03:50:50.050Z,0.14
2023-03-06T03:53:17.516Z,0.14
2023-03-06T03:55:46.034Z,0.15
2023-03-06T03:58:12.813Z,0.17
2023-03-06T04:00:39.795Z,0.16
2023-03-06T04:03:10.241Z,0.17
2023-03-06T04:05:40.445Z,0.18
2023-03-06T04:08:08.158Z,0.19
2023-03-06T04:10:38.305Z,0.21
2023-03-06T04:13:07.537Z,0.22
2023-03-06T04:15:38.040Z,0.23
2023-03-06T04:18:05.124Z,0.24
2023-03-06T04:20:31.977Z,0.25
2023-03-06T04:22:59.633Z,0.25
2023-03-06T04:25:26.629Z,0.24
2023-03-06T04:27:53.769Z,0.24
2023-03-06T04:30:21.087Z,0.24
2023-03-06T04:32:48.064Z,0.24
2023-03-06T04:35:15.113Z,0.24
2023-03-06T04:37:48.771Z,0.25
2023-03-06T04:40:19.618Z,0.25
2023-03-06T04:42:46.943Z,0.25
2023-03-06T04:45:13.896Z,0.21
2023-03-06T04:47:41.093Z,0.18
2023-03-06T04:50:08.514Z,0.19
2023-03-06T04:52:35.276Z,0.17
2023-03-06T04:55:07.963Z,0.16
2023-03-06T04:57:39.024Z,0.16
2023-03-06T05:00:09.019Z,0.17
2023-03-06T05:02:36.140Z,0.16
2023-03-06T05:05:03.485Z,0.15
2023-03-06T05:07:30.537Z,0.14
2023-03-06T05:09:57.357Z,0.13
2023-03-06T05:12:24.185Z,0.15
2023-03-06T05:14:51.056Z,0.15
2023-03-06T05:17:18.001Z,0.17
2023-03-06T05:19:44.952Z,0.18
2023-03-06T05:22:11.830Z,0.17
2023-03-06T05:24:38.751Z,0.17
2023-03-06T05:27:05.709Z,0.17
2023-03-06T05:29:32.548Z,0.18
2023-03-06T05:31:59.558Z,0.17
2023-03-06T05:34:26.658Z,0.17
2023-03-06T05:36:53.813Z,0.18
2023-03-06T05:39:20.986Z,0.20
2023-03-06T05:41:48.128Z,0.21
2023-03-06T05:44:14.985Z,0.22
2023-03-06T05:46:41.821Z,0.23
2023-03-06T05:49:08.978Z,0.26
2023-03-06T05:51:35.907Z,0.28
2023-03-06T05:54:02.777Z,0.30
2023-03-06T05:56:29.726Z,0.34
2023-03-06T05:58:56.584Z,0.35
2023-03-06T06:01:24.872Z,0.37
2023-03-06T06:03:51.932Z,0.37
2023-03-06T06:06:18.775Z,0.38
2023-03-06T06:08:45.707Z,0.40
2023-03-06T06:11:13.175Z,0.43
2023-03-06T06:13:40.163Z,0.46
2023-03-06T06:16:11.396Z,0.49
2023-03-06T06:18:41.045Z,0.55
2023-03-06T06:21:09.365Z,0.58
2023-03-06T06:23:36.721Z,0.62
2023-03-06T06:26:04.979Z,0.68
2023-03-06T06:28:32.978Z,0.74
2023-03-06T06:31:00.257Z,0.81
2023-03-06T06:33:27.390Z,0.86
2023-03-06T06:35:54.371Z,0.91
2023-03-06T06:38:21.497Z,0.97
2023-03-06T06:41:19.030Z,1.03
2023-03-06T06:43:35.355Z,1.10
2023-03-06T06:46:24.554Z,1.17
2023-03-06T06:48:49.625Z,1.26
2023-03-06T06:51:16.691Z,1.36
2023-03-06T06:53:44.344Z,1.48
2023-03-06T06:56:11.290Z,1.62
2023-03-06T06:58:38.144Z,1.74
2023-03-06T07:01:06.649Z,1.85
2023-03-06T07:03:33.762Z,1.99
2023-03-06T07:06:01.144Z,2.13
2023-03-06T07:08:28.499Z,2.26
2023-03-06T07:10:55.461Z,2.38
2023-03-06T07:13:22.508Z,2.33
2023-03-06T07:15:49.687Z,2.24
2023-03-06T07:18:16.817Z,2.24
2023-03-06T07:20:43.808Z,2.24
2023-03-06T07:23:11.641Z,2.18
2023-03-06T07:25:39.002Z,2.18
2023-03-06T07:28:06.012Z,2.31
2023-03-06T07:30:32.921Z,2.37
2023-03-06T07:33:00.220Z,2.34
2023-03-06T07:35:27.426Z,2.33
2023-03-06T07:37:54.587Z,2.35
2023-03-06T07:40:22.670Z,2.39
2023-03-06T07:42:49.712Z,2.51
2023-03-06T07:45:19.184Z,2.67
2023-03-06T07:47:45.959Z,2.81
2023-03-06T07:50:13.344Z,2.91
2023-03-06T07:52:40.382Z,2.93
2023-03-06T07:55:07.554Z,2.90
2023-03-06T07:57:35.196Z,2.93
2023-03-06T08:00:03.378Z,3.04
2023-03-06T08:02:40.694Z,3.12
2023-03-06T08:05:08.758Z,3.22
2023-03-06T08:07:36.021Z,3.34
2023-03-06T08:10:03.464Z,3.47
2023-03-06T08:12:30.410Z,3.45
2023-03-06T08:14:57.359Z,3.36
2023-03-06T08:17:24.207Z,3.33
2023-03-06T08:19:51.156Z,3.34
2023-03-06T08:22:18.108Z,3.39
2023-03-06T08:24:45.059Z,3.47
2023-03-06T08:27:12.009Z,3.56
2023-03-06T08:29:39.061Z,3.67
2023-03-06T08:32:06.158Z,3.75
2023-03-06T08:34:33.245Z,3.84
2023-03-06T08:37:00.324Z,3.90
2023-03-06T08:39:27.377Z,4.02
2023-03-06T08:41:54.432Z,4.20
2023-03-06T08:44:21.488Z,4.50
2023-03-06T08:46:48.540Z,4.88
2023-03-06T08:49:15.381Z,5.31
2023-03-06T08:51:42.651Z,5.67
2023-03-06T08:54:11.640Z,6.19
2023-03-06T08:56:38.910Z,6.94
2023-03-06T08:59:08.916Z,7.82
2023-03-06T09:01:37.438Z,8.87
2023-03-06T09:04:05.995Z,9.48
2023-03-06T09:06:34.592Z,9.23
2023-03-06T09:09:04.805Z,8.59
2023-03-06T09:11:32.063Z,8.19
2023-03-06T09:13:59.540Z,7.69
2023-03-06T09:16:26.768Z,7.21
2023-03-06T09:18:53.923Z,6.83
2023-03-06T09:21:21.333Z,6.52
2023-03-06T09:23:48.362Z,6.45
2023-03-06T09:26:15.406Z,6.72
2023-03-06T09:28:42.466Z,6.58
2023-03-06T09:31:10.821Z,6.52
2023-03-06T09:33:38.308Z,6.57
2023-03-06T09:36:06.097Z,6.79
2023-03-06T09:38:33.129Z,6.99
2023-03-06T09:43:39.616Z,7.67
2023-03-06T09:46:26.974Z,7.57
2023-03-06T09:48:54.602Z,7.20
2023-03-06T09:51:27.176Z,7.13
2023-03-06T09:53:54.128Z,7.06
2023-03-06T09:56:23.151Z,6.97
2023-03-06T09:58:53.356Z,6.95
2023-03-06T10:01:27.122Z,6.89
2023-03-06T10:03:57.693Z,6.93
2023-03-06T10:06:24.745Z,6.84
2023-03-06T10:08:54.486Z,6.67
2023-03-06T10:11:25.681Z,6.45
2023-03-06T10:14:06.983Z,6.27
2023-03-06T10:16:34.035Z,6.10
2023-03-06T10:19:02.858Z,5.98
2023-03-06T10:21:38.587Z,5.80
2023-03-06T10:24:13.148Z,5.56
2023-03-06T10:26:44.554Z,5.40
2023-03-06T10:29:11.774Z,5.38
2023-03-06T10:31:40.819Z,5.54
2023-03-06T10:34:18.939Z,5.61
2023-03-06T10:36:45.709Z,5.67
2023-03-06T10:39:16.987Z,5.63
2023-03-06T10:41:45.303Z,5.58
2023-03-06T10:44:12.242Z,5.59
2023-03-06T10:46:39.282Z,5.70
2023-03-06T10:49:21.814Z,5.82
2023-03-06T10:52:07.603Z,5.93
2023-03-06T10:54:38.938Z,5.86
2023-03-06T10:57:20.219Z,5.90
2023-03-06T10:59:54.751Z,6.00
2023-03-06T11:02:21.704Z,6.01
2023-03-06T11:04:51.477Z,6.04
2023-03-06T11:07:20.504Z,6.26
2023-03-06T11:09:56.533Z,6.48
2023-03-06T11:12:25.976Z,6.72
2023-03-06T11:15:12.266Z,6.81
2023-03-06T11:17:48.599Z,6.79
2023-03-06T11:20:17.944Z,6.80
2023-03-06T11:23:04.918Z,6.72
2023-03-06T11:25:33.649Z,6.77
2023-03-06T11:28:07.855Z,6.78
2023-03-06T11:30:39.339Z,6.61
2023-03-06T11:33:29.277Z,6.43
2023-03-06T11:36:02.271Z,6.27
2023-03-06T11:38:40.677Z,6.20
2023-03-06T11:41:12.948Z,6.15
2023-03-06T11:44:00.469Z,5.98
2023-03-06T11:46:30.393Z,5.82
2023-03-06T11:49:12.686Z,5.78
2023-03-06T11:51:47.683Z,5.75
2023-03-06T11:54:14.578Z,5.72
2023-03-06T11:56:41.396Z,5.74
2023-03-06T11:59:20.551Z,5.81
2023-03-06T12:01:54.069Z,5.91
2023-03-06T12:04:30.018Z,5.94
2023-03-06T12:07:05.552Z,5.93
2023-03-06T12:09:46.325Z,5.86
2023-03-06T12:12:22.496Z,5.79
2023-03-06T12:14:49.344Z,5.70
2023-03-06T12:17:25.596Z,5.65
2023-03-06T12:20:11.168Z,5.50
2023-03-06T12:22:38.231Z,5.40
2023-03-06T12:25:09.062Z,5.43
2023-03-06T12:27:39.087Z,5.36
2023-03-06T12:30:20.389Z,5.31
2023-03-06T12:32:50.198Z,5.28
2023-03-06T12:35:31.477Z,5.23
2023-03-06T12:38:10.787Z,5.14
2023-03-06T12:40:47.056Z,4.99
2023-03-06T12:43:33.137Z,4.90
2023-03-06T12:46:12.414Z,4.85
2023-03-06T12:48:41.264Z,4.83
2023-03-06T12:51:10.883Z,4.82
2023-03-06T12:53:39.978Z,4.85
2023-03-06T12:56:07.031Z,4.92
2023-03-06T12:58:35.021Z,5.01
2023-03-06T13:01:23.700Z,5.10
2023-03-06T13:03:53.571Z,5.20
2023-03-06T13:06:36.558Z,5.26
2023-03-06T13:09:19.593Z,5.25
2023-03-06T13:11:46.408Z,5.20
2023-03-06T13:14:24.253Z,5.15
2023-03-06T13:16:51.525Z,5.06
2023-03-06T13:19:27.270Z,5.04
2023-03-06T13:21:54.112Z,5.04
2023-03-06T13:24:21.776Z,5.07
2023-03-06T13:26:50.675Z,5.14
2023-03-06T13:29:35.957Z,5.33
2023-03-06T13:32:02.833Z,5.55
2023-03-06T13:34:37.437Z,5.74
2023-03-06T13:37:13.295Z,5.88
2023-03-06T13:40:03.242Z,6.01
2023-03-06T13:42:33.788Z,6.09
2023-03-06T13:45:19.145Z,6.11
2023-03-06T13:48:19.569Z,6.16
2023-03-06T13:50:43.812Z,6.25
2023-03-06T13:53:10.845Z,6.14
2023-03-06T13:55:41.747Z,6.09
2023-03-06T13:58:18.212Z,6.13
2023-03-06T14:00:52.629Z,6.13
2023-03-06T14:03:19.787Z,6.03
2023-03-06T14:05:47.953Z,6.01
2023-03-06T14:08:31.816Z,5.96
2023-03-06T14:11:13.177Z,5.85
2023-03-06T14:13:47.858Z,5.72
2023-03-06T14:16:22.788Z,5.63
2023-03-06T14:18:50.902Z,5.60
2023-03-06T14:21:30.396Z,5.57
2023-03-06T14:24:00.429Z,5.48
2023-03-06T14:26:31.417Z,5.40
2023-03-06T14:28:59.413Z,5.35
2023-03-06T14:31:34.244Z,5.28
2023-03-06T14:34:06.293Z,5.22
2023-03-06T14:36:42.863Z,5.21
2023-03-06T14:39:28.848Z,5.20
2023-03-06T14:42:14.305Z,5.22
2023-03-06T14:44:41.285Z,5.27
2023-03-06T14:47:17.641Z,5.31
2023-03-06T14:49:44.496Z,5.33
2023-03-06T14:52:17.063Z,5.37
2023-03-06T14:54:44.730Z,5.26
2023-03-06T14:57:17.994Z,5.20
2023-03-06T14:59:47.947Z,5.21
2023-03-06T15:02:20.936Z,5.22
2023-03-06T15:05:17.050Z,5.21
2023-03-06T15:07:44.717Z,5.15
2023-03-06T15:10:29.299Z,5.15
2023-03-06T15:13:06.759Z,5.17
2023-03-06T15:15:33.617Z,5.21
2023-03-06T15:18:00.604Z,5.22
2023-03-06T15:20:57.084Z,5.26
2023-03-06T15:23:25.057Z,5.28
2023-03-06T15:25:56.340Z,5.28
2023-03-06T15:28:39.072Z,5.29
2023-03-06T15:31:18.640Z,5.29
2023-03-06T15:34:04.308Z,5.29
2023-03-06T15:36:32.632Z,5.27
2023-03-06T15:39:00.487Z,5.25
2023-03-06T15:41:33.513Z,5.23
2023-03-06T15:44:01.888Z,5.19
2023-03-06T15:46:29.396Z,5.16
2023-03-06T15:48:58.324Z,5.13
2023-03-06T15:51:25.238Z,5.10
2023-03-06T15:53:55.014Z,5.07
2023-03-06T15:56:42.507Z,5.03
2023-03-06T15:59:19.795Z,4.99
2023-03-06T16:01:46.951Z,4.97
2023-03-06T16:04:16.539Z,4.93
2023-03-06T16:06:46.690Z,4.90
2023-03-06T16:09:13.746Z,4.86
2023-03-06T16:11:44.342Z,4.81
2023-03-06T16:14:18.288Z,4.78
2023-03-06T16:16:45.754Z,4.74
2023-03-06T16:19:25.939Z,4.71
2023-03-06T16:21:54.501Z,4.67
2023-03-06T16:24:21.534Z,4.64
2023-03-06T16:26:52.480Z,4.60
2023-03-06T16:29:21.167Z,4.56
2023-03-06T16:31:48.527Z,4.51
2023-03-06T16:34:15.804Z,4.47
2023-03-06T16:36:42.641Z,4.44
2023-03-06T16:39:16.651Z,4.42
2023-03-06T16:41:45.437Z,4.40
2023-03-06T16:44:12.905Z,4.37
2023-03-06T16:46:42.204Z,4.35
2023-03-06T16:49:19.919Z,4.34
2023-03-06T16:51:47.477Z,4.30
2023-03-06T16:54:14.439Z,4.28
2023-03-06T16:56:41.777Z,4.26
2023-03-06T16:59:08.936Z,4.23
2023-03-06T17:01:36.371Z,4.19
2023-03-06T17:04:03.560Z,4.15
2023-03-06T17:06:30.824Z,4.12
2023-03-06T17:08:59.298Z,4.07
2023-03-06T17:11:26.966Z,4.05
2023-03-06T17:13:54.852Z,4.01
2023-03-06T17:16:21.854Z,3.99
2023-03-06T17:18:49.201Z,3.97
2023-03-06T17:21:16.053Z,3.96
2023-03-06T17:23:43.974Z,3.94
2023-03-06T17:26:15.420Z,3.90
2023-03-06T17:28:42.330Z,3.86
2023-03-06T17:31:16.940Z,3.85
2023-03-06T17:33:43.846Z,3.87
2023-03-06T17:36:11.120Z,3.89
2023-03-06T17:38:37.997Z,3.90
2023-03-06T17:41:05.620Z,3.92
2023-03-06T17:43:33.205Z,3.92
2023-03-06T17:46:07.575Z,3.94
2023-03-06T17:48:34.877Z,3.94
2023-03-06T17:51:01.819Z,3.94
2023-03-06T17:53:28.779Z,3.94
2023-03-06T17:55:57.662Z,3.93
2023-03-06T17:58:25.059Z,3.92
2023-03-06T18:00:52.073Z,3.90
2023-03-06T18:03:19.227Z,3.88
2023-03-06T18:05:46.312Z,3.87
2023-03-06T18:08:13.545Z,3.85
2023-03-06T18:10:41.105Z,3.82
2023-03-06T18:13:08.781Z,3.79
2023-03-06T18:15:39.813Z,3.77
2023-03-06T18:18:07.685Z,3.75
2023-03-06T18:20:39.548Z,3.74
2023-03-06T18:23:06.404Z,3.71
2023-03-06T18:25:33.560Z,3.69
2023-03-06T18:28:01.121Z,3.67
2023-03-06T18:30:28.078Z,3.67
2023-03-06T18:32:55.024Z,3.65
2023-03-06T18:35:22.021Z,3.66
2023-03-06T18:37:49.028Z,3.65
2023-03-06T18:40:16.180Z,3.63
2023-03-06T18:42:43.135Z,3.63
2023-03-06T18:45:10.681Z,3.64
2023-03-06T18:47:37.583Z,3.66
2023-03-06T18:50:04.812Z,3.66
2023-03-06T18:52:33.287Z,3.67
2023-03-06T18:55:00.549Z,3.66
2023-03-06T18:57:29.948Z,3.64
2023-03-06T18:59:57.426Z,3.62
2023-03-06T19:02:24.371Z,3.61
2023-03-06T19:04:52.548Z,3.56
2023-03-06T19:07:19.397Z,3.53
2023-03-06T19:09:47.883Z,3.49
2023-03-06T19:12:15.243Z,3.44
2023-03-06T19:14:42.146Z,3.38
2023-03-06T19:17:09.051Z,3.34
2023-03-06T19:19:36.035Z,3.28
2023-03-06T19:22:03.103Z,3.19
2023-03-06T19:24:30.121Z,3.11
2023-03-06T19:26:57.069Z,3.06
2023-03-06T19:29:24.012Z,3.02
2023-03-06T19:31:51.597Z,3.01
2023-03-06T19:34:18.651Z,3.00
2023-03-06T19:36:45.574Z,3.00
2023-03-06T19:39:12.480Z,3.00
2023-03-06T19:41:39.347Z,3.01
2023-03-06T19:44:06.335Z,3.01
2023-03-06T19:46:34.008Z,3.02
2023-03-06T19:49:02.290Z,3.03
2023-03-06T19:51:30.139Z,3.03
2023-03-06T19:53:56.979Z,3.03
2023-03-06T19:56:29.632Z,3.03
2023-03-06T19:58:56.606Z,3.00
2023-03-06T20:01:24.462Z,2.99
2023-03-06T20:03:57.985Z,2.98
2023-03-06T20:06:26.535Z,2.98
2023-03-06T20:08:53.598Z,2.98
2023-03-06T20:11:24.761Z,2.97
2023-03-06T20:13:51.677Z,2.94
2023-03-06T20:16:18.492Z,2.93
2023-03-06T20:18:45.392Z,2.91
2023-03-06T20:21:12.444Z,2.89
2023-03-06T20:23:39.634Z,2.86
2023-03-06T20:26:09.091Z,2.85
2023-03-06T20:28:36.248Z,2.82
2023-03-06T20:31:07.274Z,2.76
2023-03-06T20:33:34.323Z,2.67
2023-03-06T20:36:01.187Z,2.62
2023-03-06T20:38:28.136Z,2.59
2023-03-06T20:40:57.214Z,2.56
2023-03-06T20:43:24.251Z,2.51
2023-03-06T20:45:55.688Z,2.46
2023-03-06T20:48:22.515Z,2.39
2023-03-06T20:51:10.408Z,2.35
2023-03-06T20:53:37.315Z,2.33
2023-03-06T20:56:04.503Z,2.31
2023-03-06T20:58:31.996Z,2.31
2023-03-06T21:01:00.804Z,2.31
2023-03-06T21:03:29.340Z,2.31
2023-03-06T21:05:56.556Z,2.32
2023-03-06T21:08:23.693Z,2.33
2023-03-06T21:10:50.650Z,2.35
2023-03-06T21:13:17.843Z,2.37
2023-03-06T21:15:46.957Z,2.39
2023-03-06T21:18:13.822Z,2.41
2023-03-06T21:20:40.984Z,2.43
2023-03-06T21:23:08.500Z,2.44
2023-03-06T21:25:35.274Z,2.42
2023-03-06T21:28:02.280Z,2.40
2023-03-06T21:30:29.139Z,2.39
2023-03-06T21:32:56.064Z,2.40
2023-03-06T21:35:23.069Z,2.42
2023-03-06T21:37:49.994Z,2.44
2023-03-06T21:40:16.874Z,2.46
2023-03-06T21:42:43.696Z,2.48
2023-03-06T21:45:11.458Z,2.50
2023-03-06T21:47:40.222Z,2.52
2023-03-06T21:50:08.872Z,2.53
2023-03-06T21:52:36.217Z,2.55
2023-03-06T21:55:03.257Z,2.55
2023-03-06T21:57:30.333Z,2.56
2023-03-06T21:59:57.271Z,2.58
2023-03-06T22:02:24.176Z,2.61
2023-03-06T22:04:52.075Z,2.67
2023-03-06T22:07:19.552Z,2.72
2023-03-06T22:09:46.463Z,2.78
2023-03-06T22:12:13.342Z,2.82
2023-03-06T22:14:42.407Z,2.87
2023-03-06T22:17:09.253Z,2.89
2023-03-06T22:19:36.112Z,2.92
2023-03-06T22:22:03.312Z,2.95
2023-03-06T22:24:33.361Z,2.99
2023-03-06T22:27:00.216Z,3.01
2023-03-06T22:29:26.998Z,3.03
2023-03-06T22:31:53.897Z,3.05
2023-03-06T22:34:20.654Z,3.08
2023-03-06T22:36:47.706Z,3.10
2023-03-06T22:39:14.850Z,3.10
2023-03-06T22:41:41.685Z,3.12
2023-03-06T22:44:13.868Z,3.12
2023-03-06T22:46:41.211Z,3.10
2023-03-06T22:49:09.087Z,3.09
2023-03-06T22:51:37.263Z,3.18
2023-03-06T22:54:40.856Z,3.28
2023-03-06T22:57:07.700Z,3.28
2023-03-06T22:59:34.610Z,3.30
2023-03-06T23:02:01.600Z,3.31
2023-03-06T23:04:28.479Z,3.35
2023-03-06T23:06:55.333Z,3.38
2023-03-06T23:09:22.392Z,3.40
2023-03-06T23:12:08.633Z,3.31
2023-03-06T23:14:53.902Z,3.28
2023-03-06T23:17:39.493Z,3.25
2023-03-06T23:20:25.033Z,3.20
2023-03-06T23:23:10.581Z,3.16
2023-03-06T23:25:43.660Z,3.13
2023-03-06T23:28:11.194Z,3.09
2023-03-06T23:30:41.275Z,3.03
2023-03-06T23:33:08.194Z,2.97
2023-03-06T23:35:36.299Z,2.93
2023-03-06T23:38:03.166Z,2.91
2023-03-06T23:40:30.782Z,2.91
2023-03-06T23:42:57.585Z,2.89
2023-03-06T23:45:24.454Z,2.88
2023-03-06T23:47:51.397Z,2.87
2023-03-06T23:50:18.420Z,2.85
2023-03-06T23:52:45.186Z,2.84
2023-03-06T23:55:12.036Z,2.81
2023-03-06T23:57:38.881Z,2.76
